• Join FlightAware (Why Join?)
  • Login
  • US Flag 
09:35PM EDT


 

Airport Tracker/Info


-or-


 

Live Flight TrackerFlight Track Log ✈ ADB388F ✈ 15-Oct-2009 ✈ PHNL - KIAH

Flight Track Log - Related Links

Times and Time Zones

All times are in EDT time to prevent confusion due to time zone crossing. See the ADB388F flight status page for this flight to view local times or setup timezone preferences in your user account.

Time Position Orientation Groundspeed Altitude Reporting Facility
EDT Latitude Longitude Course Direction KTS MPH feet Rate Location/Type
04:41PM 21.3167 -157.9000 148° Southeast 150 173 800  Level Honolulu Center
04:42PM 21.2667 -157.8670 148° Southeast 200 230 1,600 840 Climbing Honolulu Center
04:43PM 21.2167 -157.8330 102° East 250 288 2,500 1,260 Climbing Honolulu Center
04:44PM 21.2000 -157.7500 75° East 250 288 4,200 1,680 Climbing Honolulu Center
04:45PM 21.2167 -157.6830 90° East 260 299 5,900 1,620 Climbing Honolulu Center
04:46PM 21.2167 -157.6000 78° East 270 311 7,500 1,500 Climbing Honolulu Center
04:47PM 21.2333 -157.5170 78° East 270 311 9,000 1,140 Climbing Honolulu Center
04:48PM 21.2500 -157.4330 90° East 290 334 9,900 1,080 Climbing Honolulu Center
04:49PM 21.2500 -157.3500 80° East 310 357 11,200 1,200 Climbing Honolulu Center
04:50PM 21.2667 -157.2500 90° East 310 357 12,400 1,080 Climbing Honolulu Center
04:51PM 21.2667 -157.1500 78° East 320 368 13,400 1,080 Climbing Honolulu Center
04:52PM 21.2833 -157.0670 80° East 330 380 14,600 1,020 Climbing Honolulu Center
04:53PM 21.3000 -156.9670 80° East 330 380 15,500 960 Climbing Honolulu Center
04:54PM 21.3167 -156.8670 90° East 340 391 16,600 960 Climbing Honolulu Center
04:55PM 21.3167 -156.7670 81° East 340 391 17,500 900 Climbing Honolulu Center
04:56PM 21.3333 -156.6500 80° East 350 403 18,500 840 Climbing Honolulu Center
04:57PM 21.3500 -156.5500 90° East 360 414 19,300 780 Climbing Honolulu Center
04:58PM 21.3500 -156.4330 80° East 360 414 20,100 840 Climbing Honolulu Center
04:59PM 21.3667 -156.3330 81° East 370 426 21,000 840 Climbing Honolulu Center
05:00PM 21.3833 -156.2170 90° East 370 426 21,800 780 Climbing Honolulu Center
05:01PM 21.3833 -156.1170 81° East 370 426 22,600 720 Climbing Honolulu Center
05:02PM 21.4000 -156.0000 80° East 380 437 23,300 660 Climbing Honolulu Center
05:03PM 21.4167 -155.9000 81° East 390 449 24,000 600 Climbing Honolulu Center
05:04PM 21.4333 -155.7830 90° East 390 449 24,600 660 Climbing Honolulu Center
05:05PM 21.4333 -155.6670 81° East 390 449 25,400 720 Climbing Honolulu Center
05:06PM 21.4500 -155.5500 81° East 390 449 26,100 600 Climbing Honolulu Center
05:07PM 21.4667 -155.4330 81° East 390 449 26,600 540 Climbing Honolulu Center
05:08PM 21.4833 -155.3170 90° East 400 460 27,200 540 Climbing Honolulu Center
05:09PM 21.4833 -155.2000 81° East 400 460 27,800 540 Climbing Honolulu Center
05:10PM 21.5000 -155.0830 81° East 400 460 28,400 480 Climbing Honolulu Center
05:11PM 21.5167 -154.9670 82° East 410 472 28,800 420 Climbing Honolulu Center
05:12PM 21.5333 -154.8330 90° East 410 472 29,300 420 Climbing Honolulu Center
05:13PM 21.5333 -154.7170 81° East 410 472 29,700 360 Climbing Honolulu Center
05:14PM 21.5500 -154.6000 82° East 420 483 30,100 420 Climbing Honolulu Center
05:15PM 21.5667 -154.4670 81° East 420 483 30,600 420 Climbing Honolulu Center
05:16PM 21.5833 -154.3500 83° East 420 483 31,000 420 Climbing Honolulu Center
05:17PM 21.6000 -154.2000 82° East 420 483 31,500 420 Climbing Honolulu Center
05:18PM 21.6167 -154.0670 81° East 420 483 31,900 420 Climbing Honolulu Center
05:19PM 21.6333 -153.9500 90° East 420 483 32,400 360 Climbing Honolulu Center
05:20PM 21.6333 -153.8170 82° East 420 483 32,700 300 Climbing Honolulu Center
05:21PM 21.6500 -153.6830 81° East 430 495 33,100 360 Climbing Honolulu Center
05:22PM 21.6667 -153.5670 82° East 430 495 33,500 360 Climbing Honolulu Center
05:23PM 21.6833 -153.4330 81° East 430 495 33,900 300 Climbing Honolulu Center
05:24PM 21.7000 -153.3170 82° East 430 495 34,200 300 Climbing Honolulu Center
05:25PM 21.7167 -153.1830 82° East 430 495 34,500 360 Climbing Honolulu Center
05:26PM 21.7333 -153.0500 54° Northeast 450 518 35,000 240 Climbing Honolulu Center
05:27PM 21.8000 -152.9500 61° Northeast 430 495 35,000  Level Honolulu Center
05:37PM 22.3500 -151.8830 62° Northeast 427 491 35,000  Level Oakland Oceanic (ODAPS)
06:31PM 25.2833 -145.5170 65° Northeast 488 562 35,000  Level Oakland Oceanic (ODAPS)
07:14PM 27.9167 -138.8500 68° East 506 582 35,000  Level Oakland Oceanic (ODAPS)
08:03PM 30.2833 -131.6330 71° East 485 558 35,000  Level Oakland Oceanic (ODAPS)
08:54PM 32.2428 -124.1000 82° East 35,000  Level Los Angeles Center
08:55PM 32.2661 -123.8980 76° East 435 501 35,000  Level Los Angeles Center
08:56PM 32.2964 -123.7510 75° East 450 518 35,000  Level Los Angeles Center
08:57PM 32.3283 -123.6060 75° East 456 525 35,000  Level Los Angeles Center
08:58PM 32.3600 -123.4610 76° East 456 525 35,000  Level Los Angeles Center
08:59PM 32.3894 -123.3160 76° East 456 525 35,000  Level Los Angeles Center
09:00PM 32.4211 -123.1690 76° East 456 525 35,000  Level Los Angeles Center
09:01PM 32.4525 -123.0210 75° East 461 531 35,000  Level Los Angeles Center
09:02PM 32.4856 -122.8760 75° East 461 531 35,000  Level Los Angeles Center
09:03PM 32.5186 -122.7310 76° East 461 531 35,000  Level Los Angeles Center
09:04PM 32.5497 -122.5810 76° East 461 531 35,000  Level Los Angeles Center
09:05PM 32.5803 -122.4350 75° East 461 531 35,000  Level Los Angeles Center
09:06PM 32.6128 -122.2870 75° East 461 531 35,000  Level Los Angeles Center
09:07PM 32.6453 -122.1410 75° East 461 531 35,000  Level Los Angeles Center
09:08PM 32.6772 -121.9960 75° East 461 531 35,000  Level Los Angeles Center
09:09PM 32.7092 -121.8500 77° East 461 531 35,000  Level Los Angeles Center
09:10PM 32.7369 -121.7010 75° East 461 531 35,000  Level Los Angeles Center
09:11PM 32.7686 -121.5550 75° East 461 531 35,000  Level Los Angeles Center
09:12PM 32.8003 -121.4090 78° East 456 525 35,000  Level Los Angeles Center
09:13PM 32.8275 -121.2570 78° East 462 532 35,000  Level Los Angeles Center
09:14PM 32.8544 -121.1080 77° East 462 532 35,000  Level Los Angeles Center
09:15PM 32.8836 -120.9590 77° East 462 532 35,000  Level Los Angeles Center
09:16PM 32.9122 -120.8140 77° East 462 532 35,000  Level Los Angeles Center
09:17PM 32.9406 -120.6700 77° East 462 532 35,000  Level Los Angeles Center
09:18PM 32.9686 -120.5280 77° East 457 526 35,000  Level Los Angeles Center
09:19PM 32.9969 -120.3810 78° East 452 520 35,000  Level Los Angeles Center
09:20PM 33.0228 -120.2360 77° East 447 514 35,000  Level Los Angeles Center
09:21PM 33.0481 -120.1030 78° East 447 514 35,000  Level Los Angeles Center
09:22PM 33.0761 -119.9460 77° East 447 514 35,000  Level Los Angeles Center
09:23PM 33.1033 -119.8010 76° East 447 514 35,000  Level Los Angeles Center
09:24PM 33.1328 -119.6580 77° East 447 514 35,000  Level Los Angeles Center
09:25PM 33.1572 -119.5280 78° East 452 520 35,000  Level Los Angeles Center
09:26PM 33.1842 -119.3820 78° East 452 520 35,000  Level Los Angeles Center
09:27PM 33.2108 -119.2370 77° East 447 514 35,000  Level Los Angeles Center
09:28PM 33.2397 -119.0910 78° East 447 514 35,000  Level Los Angeles Center
09:29PM 33.2658 -118.9480 77° East 447 514 35,000  Level Los Angeles Center
09:30PM 33.2942 -118.8020 78° East 447 514 35,000  Level Los Angeles Center
09:31PM 33.3203 -118.6570 78° East 447 514 35,000  Level Los Angeles Center
09:32PM 33.3461 -118.5130 79° East 447 514 35,000  Level Los Angeles Center
09:33PM 33.3700 -118.3650 85° East 447 514 35,000  Level Los Angeles Center
09:34PM 33.3808 -118.2160 85° East 447 514 35,000  Level Los Angeles Center
09:35PM 33.3917 -118.0640 84° East 447 514 35,000  Level Los Angeles Center
09:36PM 33.4044 -117.9180 85° East 442 509 35,000  Level Los Angeles Center
09:37PM 33.4172 -117.7540 84° East 442 509 35,000  Level Los Angeles Center
09:38PM 33.4294 -117.6050 84° East 442 509 35,000  Level Los Angeles Center
09:39PM 33.4417 -117.4560 85° East 442 509 35,000  Level Los Angeles Center
09:40PM 33.4536 -117.3060 86° East 442 509 35,000  Level Los Angeles Center
09:41PM 33.4611 -117.1870 85° East 442 509 35,000  Level Los Angeles Center
09:42PM 33.4750 -117.0080 85° East 442 509 35,000  Level Los Angeles Center
09:43PM 33.4864 -116.8580 85° East 447 514 35,000  Level Los Angeles Center
09:44PM 33.4978 -116.7120 86° East 447 514 35,000  Level Los Angeles Center
09:45PM 33.5067 -116.5570 86° East 447 514 35,000  Level Los Angeles Center
09:46PM 33.5156 -116.4050 85° East 447 514 35,000  Level Los Angeles Center
09:47PM 33.5261 -116.2560 86° East 452 520 35,000  Level Los Angeles Center
09:48PM 33.5347 -116.1010 86° East 452 520 35,000  Level Los Angeles Center
09:49PM 33.5428 -115.9490 86° East 457 526 35,000  Level Los Angeles Center
09:50PM 33.5508 -115.8000 86° East 457 526 35,000  Level Los Angeles Center
09:51PM 33.5586 -115.6500 86° East 457 526 35,000  Level Los Angeles Center
09:52PM 33.5664 -115.5010 87° East 457 526 35,000  Level Los Angeles Center
09:53PM 33.5739 -115.3480 88° East 452 520 35,000  Level Los Angeles Center
09:54PM 33.5792 -115.1960 86° East 452 520 35,000  Level Los Angeles Center
09:55PM 33.5883 -115.0440 87° East 452 520 35,000  Level Los Angeles Center
09:56PM 33.5953 -114.8940 88° East 452 520 35,000  Level Los Angeles Center
09:57PM 33.6000 -114.7470 97° East 452 520 35,000  Level Los Angeles Center
09:58PM 33.5856 -114.5990 95° East 452 520 35,000  Level Albuquerque Center
09:59PM 33.5739 -114.4460 97° East 452 520 35,000  Level Albuquerque Center
10:00PM 33.5597 -114.2980 95° East 452 520 35,000  Level Albuquerque Center
10:01PM 33.5475 -114.1450 97° East 452 520 35,000  Level Albuquerque Center
10:02PM 33.5331 -113.9970 98° East 452 520 35,000  Level Albuquerque Center
10:03PM 33.5161 -113.8460 94° East 452 520 35,000  Level Albuquerque Center
10:04PM 33.5081 -113.7240 98° East 452 520 35,000  Level Albuquerque Center
10:05PM 33.4897 -113.5600 98° East 446 513 35,000  Level Albuquerque Center
10:06PM 33.4722 -113.4120 102° East 451 519 35,000  Level Albuquerque Center
10:07PM 33.4442 -113.2610 102° East 451 519 35,000  Level Albuquerque Center
10:08PM 33.4181 -113.1120 106° East 457 526 35,000  Level Albuquerque Center
10:09PM 33.3833 -112.9660 102° East 457 526 35,000  Level Albuquerque Center
10:10PM 33.3617 -112.8480 104° East 457 526 35,000  Level Albuquerque Center
10:11PM 33.3239 -112.6690 105° East 463 533 35,000  Level Albuquerque Center
10:12PM 33.2908 -112.5200 104° East 463 533 35,000  Level Albuquerque Center
10:13PM 33.2594 -112.3720 104° East 463 533 35,000  Level Albuquerque Center
10:14PM 33.2264 -112.2110 104° East 463 533 35,000  Level Albuquerque Center
10:15PM 33.1947 -112.0620 105° East 463 533 35,000  Level Albuquerque Center
10:16PM 33.1631 -111.9170 106° East 458 527 35,000  Level Albuquerque Center
10:17PM 33.1267 -111.7690 105° East 458 527 35,000  Level Albuquerque Center
10:18PM 33.0925 -111.6210 107° East 463 533 35,000  Level Albuquerque Center
10:19PM 33.0558 -111.4780 107° East 458 527 35,000  Level Albuquerque Center
10:20PM 33.0189 -111.3300 106° East 464 534 35,000  Level Albuquerque Center
10:21PM 32.9842 -111.1850 107° East 464 534 35,000  Level Albuquerque Center
10:22PM 32.9469 -111.0370 106° East 464 534 35,000  Level Albuquerque Center
10:23PM 32.9119 -110.8900 107° East 464 534 35,000  Level Albuquerque Center
10:24PM 32.8744 -110.7400 105° East 466 536 35,000  Level Albuquerque Center
10:25PM 32.8428 -110.6000 104° East 460 529 35,000  Level Albuquerque Center
10:26PM 32.8111 -110.4530 104° East 460 529 35,000  Level Albuquerque Center
10:27PM 32.7794 -110.3040 105° East 460 529 35,000  Level Albuquerque Center
10:28PM 32.7456 -110.1550 104° East 460 529 35,000  Level Albuquerque Center
10:29PM 32.7156 -110.0080 106° East 460 529 35,000  Level Albuquerque Center
10:30PM 32.6792 -109.8620 104° East 460 529 35,000  Level Albuquerque Center
10:31PM 32.6467 -109.7130 105° East 460 529 35,000  Level Albuquerque Center
10:32PM 32.6139 -109.5660 106° East 460 529 35,000  Level Albuquerque Center
10:33PM 32.5789 -109.4200 104° East 460 529 35,000  Level Albuquerque Center
10:34PM 32.5500 -109.2870 107° East 460 529 35,000  Level Albuquerque Center
10:35PM 32.5125 -109.1380 105° East 460 529 35,000  Level Albuquerque Center
10:36PM 32.4792 -108.9920 106° East 460 529 35,000  Level Albuquerque Center
10:37PM 32.4436 -108.8460 105° East 460 529 35,000  Level Albuquerque Center
10:38PM 32.4097 -108.6980 105° East 460 529 35,000  Level Albuquerque Center
10:39PM 32.3758 -108.5530 105° East 460 529 35,000  Level Albuquerque Center
10:40PM 32.3419 -108.4080 105° East 460 529 35,000  Level Albuquerque Center
10:41PM 32.3075 -108.2600 106° East 460 529 35,000  Level Albuquerque Center
10:42PM 32.2711 -108.1140 106° East 460 529 35,000  Level Albuquerque Center
10:43PM 32.2364 -107.9670 107° East 460 529 35,000  Level Albuquerque Center
10:44PM 32.1994 -107.8200 106° East 460 529 35,000  Level Albuquerque Center
10:45PM 32.1625 -107.6730 106° East 460 529 35,000  Level Albuquerque Center
10:46PM 32.1272 -107.5250 106° East 460 529 35,000  Level Albuquerque Center
10:47PM 32.0900 -107.3760 107° East 465 535 35,000  Level Albuquerque Center
10:48PM 32.0481 -107.2140 106° East 465 535 35,000  Level Albuquerque Center
10:49PM 32.0125 -107.0720 108° East 465 535 35,000  Level Albuquerque Center
10:50PM 31.9744 -106.9310 104° East 465 535 35,000  Level Albuquerque Center
10:51PM 31.9406 -106.7690 107° East 464 534 35,000  Level Albuquerque Center
10:52PM 31.9019 -106.6230 105° East 475 547 35,000  Level Albuquerque Center
10:53PM 31.8719 -106.4910 107° East 475 547 35,000  Level Albuquerque Center
10:54PM 31.8356 -106.3480 107° East 470 541 35,000  Level Albuquerque Center
10:55PM 31.7967 -106.1990 107° East 470 541 35,000  Level Albuquerque Center
10:56PM 31.7575 -106.0510 106° East 470 541 35,000  Level Albuquerque Center
10:57PM 31.7203 -105.9020 108° East 475 547 35,000  Level Albuquerque Center
10:58PM 31.6808 -105.7570 107° East 475 547 35,000  Level Albuquerque Center
10:59PM 31.6433 -105.6090 106° East 475 547 35,000  Level Albuquerque Center
11:00PM 31.6058 -105.4590 106° East 480 552 35,000  Level Albuquerque Center
11:01PM 31.5656 -105.2990 107° East 480 552 35,000  Level Albuquerque Center
11:02PM 31.5275 -105.1490 107° East 475 547 35,000  Level Albuquerque Center
11:03PM 31.4892 -104.9990 106° East 475 547 35,000  Level Albuquerque Center
11:04PM 31.4528 -104.8490 107° East 475 547 35,000  Level Albuquerque Center
11:05PM 31.4142 -104.7000 106° East 475 547 35,000  Level Albuquerque Center
11:06PM 31.3775 -104.5500 108° East 475 547 35,000  Level Albuquerque Center
11:07PM 31.3361 -104.3990 107° East 475 547 35,000  Level Albuquerque Center
11:08PM 31.2969 -104.2490 107° East 475 547 35,000  Level Albuquerque Center
11:09PM 31.2575 -104.0980 107° East 480 552 35,000  Level Albuquerque Center
11:10PM 31.2181 -103.9490 108° East 480 552 35,000  Level Albuquerque Center
11:11PM 31.1783 -103.8030 107° East 473 544 35,000  Level Albuquerque Center
11:12PM 31.1383 -103.6540 107° East 473 544 35,000  Level Albuquerque Center
11:13PM 31.0983 -103.5030 107° East 473 544 35,000  Level Albuquerque Center
11:14PM 31.0600 -103.3550 109° East 473 544 35,000  Level Albuquerque Center
11:15PM 31.0153 -103.2040 107° East 479 551 35,000  Level Albuquerque Center
11:16PM 30.9761 -103.0540 107° East 479 551 35,000  Level Houston Center
11:17PM 30.9367 -102.9050 107° East 484 557 35,000  Level Houston Center
11:18PM 30.8969 -102.7560 107° East 484 557 35,000  Level Houston Center
11:19PM 30.8575 -102.6020 106° East 484 557 35,000  Level Houston Center
11:20PM 30.8200 -102.4510 107° East 489 563 35,000  Level Houston Center
11:21PM 30.7800 -102.2970 107° East 494 568 35,000  Level Houston Center
11:22PM 30.7400 -102.1460 106° East 494 568 35,000  Level Houston Center
11:23PM 30.7047 -102.0070 107° East 494 568 35,000  Level Houston Center
11:24PM 30.6644 -101.8530 107° East 499 574 35,000  Level Houston Center
11:25PM 30.6258 -101.7020 106° East 499 574 35,000  Level Houston Center
11:26PM 30.5839 -101.5370 107° East 499 574 35,000  Level Houston Center
11:27PM 30.5431 -101.3840 107° East 499 574 35,000  Level Houston Center
11:28PM 30.5036 -101.2360 108° East 494 568 35,000  Level Houston Center
11:29PM 30.4603 -101.0820 108° East 494 568 35,000  Level Houston Center
11:30PM 30.4186 -100.9300 108° East 499 574 35,000  Level Houston Center
11:31PM 30.3750 -100.7770 108° East 499 574 35,000  Level Houston Center
11:32PM 30.3344 -100.6360 107° East 507 583 35,000  Level Houston Center
11:33PM 30.2942 -100.4860 108° East 507 583 35,000  Level Houston Center
11:34PM 30.2519 -100.3340 108° East 501 577 35,000  Level Houston Center
11:35PM 30.2094 -100.1810 109° East 501 577 35,000  Level Houston Center
11:36PM 30.1644 -100.0340 109° East 501 577 35,000  Level Houston Center
11:37PM 30.1197 -99.8836 108° East 496 571 35,000  Level Houston Center
11:38PM 30.0767 -99.7317 109° East 496 571 35,000  Level Houston Center
11:39PM 30.0314 -99.5819 109° East 496 571 35,000  Level Houston Center
11:40PM 29.9861 -99.4275 109° East 496 571 35,000  Level Houston Center
11:41PM 29.9422 -99.2783 102° East 496 571 35,000  Level Houston Center
11:42PM 29.9133 -99.1231 96° East 496 571 35,000  Level Houston Center
11:43PM 29.8992 -98.9639 94° East 496 571 35,000  Level Houston Center
11:44PM 29.8889 -98.8053 97° East 496 571 35,000  Level Houston Center
11:45PM 29.8719 -98.6486 94° East 496 571 35,000  Level Houston Center
11:46PM 29.8614 -98.4900 95° East 496 571 35,000  Level Houston Center
11:47PM 29.8483 -98.3336 95° East 496 571 35,000  Level Houston Center
11:48PM 29.8350 -98.1747 106° East 496 571 35,000  Level Houston Center
11:49PM 29.7964 -98.0217 112° Southeast 496 571 35,000  Level Houston Center
11:50PM 29.7450 -97.8728 111° Southeast 489 563 35,000 -420 Level Houston Center
11:51PM 29.6972 -97.7289 108° East 489 563 34,200 -960 Descending Houston Center
11:52PM 29.6558 -97.5808 113° Southeast 484 557 33,100 -1,500 Descending Houston Center
11:53PM 29.6056 -97.4417 112° Southeast 477 549 31,300 -1,980 Descending Houston Center
11:54PM 29.5569 -97.3031 112° Southeast 471 542 29,200 -2,040 Descending Houston Center
11:55PM 29.5103 -97.1694 110° East 458 527 27,200 -1,980 Descending Houston Center
11:56PM 29.4694 -97.0408 83° East 445 512 25,300 -1,920 Descending Houston Center
11:57PM 29.4831 -96.9081 78° East 419 482 23,400 -2,220 Descending Houston Center
11:58PM 29.5067 -96.7803 78° East 407 468 20,900 -6,720 Descending Houston Center
11:59PM 29.5306 -96.6478 77° East 401 461 10,000 -1,980 Descending Houston Center
12:00AM 29.5556 -96.5272 79° East 389 448 17,000 2,340 Climbing Houston Center
12:01AM 29.5742 -96.4183 74° East 368 423 14,700 -2,160 Descending Houston Center
12:02AM 29.5983 -96.3217 76° East 353 406 12,900 -1,560 Descending Houston Center
12:03AM 29.6233 -96.2033 76° East 343 395 11,600 -1,080 Descending Houston Center
12:04AM 29.6453 -96.1039 76° East 332 382 10,700 -960 Descending Houston Center
12:04AM 29.6503 -96.0803 74° East 305 351 10,400 -720 Descending Houston Center
12:05AM 29.6669 -96.0117 70° East 310 357 10,000 -420 Descending Houston Center
12:05AM 29.6742 -95.9881 76° East 300 345 10,000 60 Level Houston Center
12:06AM 29.6886 -95.9217 75° East 299 344 10,100 -600 Climbing Houston Center
12:07AM 29.7103 -95.8294 67° East 299 344 9,000 -1,440 Descending Houston Center
12:08AM 29.7422 -95.7444 47° Northeast 294 338 7,300 -1,440 Descending Houston Center
12:09AM 29.7964 -95.6772 57° Northeast 280 322 6,200 -600 Descending Houston Center
12:10AM 29.8336 -95.6117 60° Northeast 274 315 6,100 -60 Descending Houston Center
12:11AM 29.8669 -95.5458 62° Northeast 249 287 6,100  Level Houston Center
12:12AM 29.8958 -95.4822 57° Northeast 223 257 6,100 60 Level Houston Center
12:12AM 29.9114 -95.4542 81° East 222 255 6,200 60 Climbing Houston Center
12:13AM 29.9167 -95.4161 93° East 218 251 6,200 -240 Level Houston Center
12:13AM 29.9153 -95.3825 88° East 235 270 6,000 -240 Descending Houston Center
12:14AM 29.9167 -95.3394 88° East 225 259 6,000  Level Houston Center
12:14AM 29.9175 -95.3083 88° East 228 262 6,000 60 Level Houston Center
12:15AM 29.9186 -95.2603 93° East 225 259 6,100 60 Climbing Houston Center
12:15AM 29.9172 -95.2317 94° East 234 269 6,100 -120 Level Houston Center
12:16AM 29.9144 -95.1836 93° East 231 266 6,000  Descending Houston Center
12:16AM 29.9131 -95.1572 92° East 235 270 6,100 -780 Climbing Houston Center
12:17AM 29.9106 -95.0875 92° East 230 265 5,000 -540 Descending Houston Center
12:18AM 29.9081 -95.0206 40° Northeast 212 244 5,100 -420 Climbing Houston Center
12:19AM 29.9422 -94.9881 312° West 197 227 4,200 -540 Descending Houston Center
12:20AM 29.9847 -95.0422 277° West 178 205 4,000 -60 Descending Houston Center
12:21AM 29.9917 -95.1047 268° West 163 188 4,100 -420 Climbing Houston Center
12:22AM 29.9906 -95.1453 273° West 162 186 3,300 -1,020 Descending Houston Center
12:24AM 29.9931 -95.2056 269° West 151 174 2,100 -900 Descending Houston Center
12:24AM 29.9922 -95.2461 268° West 136 157 1,500 -720 Descending Houston Center
12:25AM 29.9908 -95.2892 268° West 133 153 800 -720 Descending Houston Center